KMER/MER METAR and TAF weather

Enter ICAO airport designator
Station Type Date Time Source
KMER METAR 2020/06/06 14:45 UTC NOAA

KMER 061445Z 00000KT 10SM BKN010 14/08 A2990


Station Type Date Time Source
KMER Decoded METAR 2020/06/06 14:45 UTC NOAA

Merced / Castle Air Force Base, CA, United States (KMER) 37-22N 120-34W 60M
Jun 06, 2020 - 10:45 AM EDT / 2020.06.06 1445 UTC
Wind: Calm:0
Visibility: 10 mile(s):0
Sky conditions: mostly cloudy
Temperature: 57 F (14 C)
Dew Point: 46 F (8 C)
Relative Humidity: 67%
Pressure (altimeter): 29.9 in. Hg (1012 hPa)
ob: KMER 061445Z 00000KT 10SM BKN010 14/08 A2990
cycle: 15

Station Type Date Time Source
KMER TAF 2020/06/06 18:25 UTC NOAA

TAF KMER 061720Z 0618/0718 27006KT P6SM SKC
FM062200 34016G22KT P6SM SKC
AMD NOT SKED

Example: see airport list